Time;durP1;ratioP1;P1;durP2;ratioP2;P2;SDS_P1;SDS_P2;PMS_P1;PMS_P2;Temp;Humidity;BMP_temperature;BMP_pressure;BME280_temperature;BME280_humidity;BME280_pressure;Samples;Min_cycle;Max_cycle;Signal;HPM_P1;HPM_P2
2022/02/14 00:02:10;;;;;;;6.07;1.48;;;10.20;99.90;;;;;;5021180;28;20515;-62
2022/02/14 00:04:35;;;;;;;4.68;1.23;;;10.20;99.90;;;;;;5021063;28;20707;-61
2022/02/14 00:07:01;;;;;;;4.25;1.50;;;10.20;99.90;;;;;;5022214;28;20033;-63
2022/02/14 00:09:27;;;;;;;4.15;1.83;;;10.20;99.90;;;;;;5019704;28;20119;-63
2022/02/14 00:11:53;;;;;;;7.75;1.92;;;10.10;99.90;;;;;;5022843;28;20036;-61
2022/02/14 00:14:20;;;;;;;4.63;1.50;;;10.10;99.90;;;;;;5019499;28;20100;-61
2022/02/14 00:16:46;;;;;;;7.00;1.50;;;10.10;99.90;;;;;;5022085;28;20504;-62
2022/02/14 00:19:12;;;;;;;5.07;1.58;;;10.10;99.90;;;;;;5020883;28;20071;-62
2022/02/14 00:21:37;;;;;;;4.72;1.25;;;10.10;99.90;;;;;;5020726;28;20034;-62
2022/02/14 00:24:06;;;;;;;6.28;1.45;;;10.10;99.90;;;;;;5021569;28;20041;-61
2022/02/14 00:26:31;;;;;;;6.22;1.33;;;10.10;99.90;;;;;;5018882;28;20132;-62
2022/02/14 00:28:57;;;;;;;6.75;2.13;;;10.10;99.90;;;;;;5018541;28;20085;-63
2022/02/14 00:31:22;;;;;;;2.97;1.27;;;10.20;99.90;;;;;;5022440;28;20037;-64
2022/02/14 00:33:48;;;;;;;7.57;1.55;;;10.10;99.90;;;;;;5018938;28;20038;-62
2022/02/14 00:36:14;;;;;;;4.95;1.63;;;10.10;99.90;;;;;;5021831;28;20041;-61
2022/02/14 00:38:40;;;;;;;3.97;1.23;;;10.10;99.90;;;;;;5019263;28;20038;-61
2022/02/14 00:41:06;;;;;;;3.90;1.08;;;10.10;99.90;;;;;;5020675;28;20048;-62
2022/02/14 00:43:31;;;;;;;5.95;1.88;;;10.10;99.90;;;;;;5024984;28;20021;-63
2022/02/14 00:45:57;;;;;;;6.55;1.85;;;10.10;99.90;;;;;;5018355;28;20477;-62
2022/02/14 00:48:22;;;;;;;6.20;1.85;;;10.10;99.90;;;;;;5022530;28;20508;-63
2022/02/14 00:50:48;;;;;;;11.68;2.78;;;10.10;99.90;;;;;;5020571;28;20038;-63
2022/02/14 00:53:14;;;;;;;4.80;1.20;;;10.10;99.90;;;;;;5019254;28;20033;-64
2022/02/14 00:55:40;;;;;;;8.88;1.58;;;10.10;99.90;;;;;;5019866;28;20038;-61
2022/02/14 00:58:06;;;;;;;5.90;1.40;;;10.20;99.90;;;;;;5019352;28;20040;-62
2022/02/14 01:00:31;;;;;;;6.28;1.77;;;10.10;99.90;;;;;;5018125;28;20034;-62
2022/02/14 01:02:57;;;;;;;7.00;1.60;;;10.20;99.90;;;;;;5021508;28;20045;-62
2022/02/14 01:05:23;;;;;;;8.00;2.50;;;10.20;99.90;;;;;;5018868;28;20187;-63
2022/02/14 01:07:48;;;;;;;3.47;1.40;;;10.20;99.90;;;;;;5021496;28;20033;-61
2022/02/14 01:10:14;;;;;;;5.57;1.70;;;10.30;99.90;;;;;;5018642;28;20022;-62
2022/02/14 01:12:41;;;;;;;11.13;1.58;;;10.20;99.90;;;;;;5020901;28;20441;-63
2022/02/14 01:15:08;;;;;;;5.90;1.55;;;10.20;99.90;;;;;;5018571;28;20416;-62
2022/02/14 01:17:35;;;;;;;7.18;1.58;;;10.20;99.90;;;;;;5019496;28;20030;-62
2022/02/14 01:20:03;;;;;;;5.43;1.40;;;10.20;99.90;;;;;;5020151;28;20485;-63
2022/02/14 01:22:29;;;;;;;5.32;1.40;;;10.20;99.90;;;;;;5019032;28;20375;-62
2022/02/14 01:24:54;;;;;;;5.30;1.55;;;10.20;99.90;;;;;;5021024;28;20092;-63
2022/02/14 01:27:20;;;;;;;13.48;1.70;;;10.20;99.90;;;;;;5016135;28;20034;-62
2022/02/14 01:29:46;;;;;;;5.55;1.52;;;10.20;99.90;;;;;;5021022;28;20095;-62
2022/02/14 01:32:11;;;;;;;6.25;1.35;;;10.20;99.90;;;;;;5018574;28;20558;-63
2022/02/14 01:34:37;;;;;;;28.35;1.83;;;10.20;99.90;;;;;;5018628;28;20099;-62
2022/02/14 01:37:03;;;;;;;6.13;1.27;;;10.10;99.90;;;;;;5018769;28;20124;-62
2022/02/14 01:39:29;;;;;;;5.00;1.60;;;10.10;99.90;;;;;;5018538;28;20129;-63
2022/02/14 01:41:58;;;;;;;8.10;1.65;;;10.20;99.90;;;;;;5021071;28;20040;-63
2022/02/14 01:44:42;;;;;;;7.70;1.92;;;10.20;99.90;;;;;;5019467;28;20037;-61
2022/02/14 01:47:16;;;;;;;5.60;1.40;;;10.20;99.90;;;;;;5020231;28;20084;-62
2022/02/14 01:49:44;;;;;;;4.57;1.17;;;10.20;99.90;;;;;;5018043;28;20061;-62
2022/02/14 01:52:10;;;;;;;4.90;1.40;;;10.20;99.90;;;;;;5020333;28;20737;-62
2022/02/14 01:54:39;;;;;;;4.55;1.70;;;10.20;99.90;;;;;;5018415;28;20041;-62
2022/02/14 01:57:05;;;;;;;11.00;1.50;;;10.20;99.90;;;;;;5018782;28;20084;-62
2022/02/14 01:59:33;;;;;;;4.32;1.20;;;10.30;99.90;;;;;;5018700;28;20074;-62
2022/02/14 02:01:59;;;;;;;8.00;1.38;;;10.20;99.90;;;;;;5019042;28;20046;-62
2022/02/14 02:04:26;;;;;;;8.40;2.00;;;10.20;99.90;;;;;;5020561;28;20049;-62
2022/02/14 02:06:53;;;;;;;4.32;1.45;;;10.20;99.90;;;;;;5018318;28;20137;-62
2022/02/14 02:09:19;;;;;;;9.00;1.75;;;10.20;99.90;;;;;;5021126;28;20566;-62
2022/02/14 02:14:28;;;;;;;2.35;0.98;;;10.20;99.90;;;;;;5019034;28;20088;-62
2022/02/14 02:16:54;;;;;;;13.85;1.50;;;10.20;99.90;;;;;;5019983;28;20038;-63
2022/02/14 02:19:20;;;;;;;7.30;1.63;;;10.20;99.90;;;;;;5016560;28;20026;-62
2022/02/14 02:21:47;;;;;;;4.78;1.30;;;10.10;99.90;;;;;;5020456;28;20041;-63
2022/02/14 02:24:17;;;;;;;2.33;1.00;;;10.10;99.90;;;;;;5017732;28;20560;-62
2022/02/14 02:26:45;;;;;;;3.25;1.13;;;10.10;99.90;;;;;;5017082;28;20056;-62
2022/02/14 02:29:11;;;;;;;10.50;1.70;;;10.10;99.90;;;;;;5020884;28;20331;-62
2022/02/14 02:31:37;;;;;;;4.72;1.13;;;10.10;99.90;;;;;;5016235;28;20079;-63
2022/02/14 02:34:05;;;;;;;8.30;1.45;;;10.20;99.90;;;;;;5019737;28;20080;-63
2022/02/14 02:36:30;;;;;;;2.10;0.82;;;10.20;99.90;;;;;;5018339;28;20049;-64
2022/02/14 02:38:56;;;;;;;3.97;0.77;;;10.20;99.90;;;;;;5018895;28;20041;-61
2022/02/14 02:41:21;;;;;;;7.20;1.70;;;10.20;99.90;;;;;;5017739;28;20076;-62
2022/02/14 02:43:47;;;;;;;5.10;0.82;;;10.20;99.90;;;;;;5020047;28;20494;-63
2022/02/14 02:46:13;;;;;;;5.18;0.77;;;10.20;99.90;;;;;;5020283;28;20414;-62
2022/02/14 02:48:38;;;;;;;3.50;0.90;;;10.20;99.90;;;;;;5017211;28;20033;-62
2022/02/14 02:51:05;;;;;;;3.63;0.90;;;10.20;99.90;;;;;;5019459;28;20038;-63
2022/02/14 02:53:32;;;;;;;3.97;0.77;;;10.20;99.90;;;;;;5018411;28;20416;-62
2022/02/14 02:55:58;;;;;;;5.03;1.58;;;10.20;99.90;;;;;;5018939;28;20026;-62
2022/02/14 02:58:24;;;;;;;3.58;1.35;;;10.30;99.90;;;;;;5019566;28;20033;-63
2022/02/14 03:00:50;;;;;;;5.85;1.20;;;10.30;99.90;;;;;;5017156;28;20026;-62
2022/02/14 03:03:15;;;;;;;3.03;0.70;;;10.30;99.90;;;;;;5019042;28;20044;-62
2022/02/14 03:05:41;;;;;;;11.27;1.95;;;10.30;99.90;;;;;;5014768;28;20168;-62
2022/02/14 03:08:07;;;;;;;9.40;1.30;;;10.40;99.90;;;;;;5020324;28;20500;-62
2022/02/14 03:10:32;;;;;;;4.45;0.65;;;10.40;99.90;;;;;;5017390;28;20127;-62
2022/02/14 03:12:58;;;;;;;6.93;1.48;;;10.40;99.90;;;;;;5018878;28;20064;-63
2022/02/14 03:15:24;;;;;;;3.90;0.77;;;10.40;99.90;;;;;;5019186;28;20041;-63
2022/02/14 03:17:50;;;;;;;2.38;0.85;;;10.40;99.90;;;;;;5017684;28;20556;-62
2022/02/14 03:20:15;;;;;;;3.55;0.98;;;10.40;99.90;;;;;;5018494;28;20112;-61
2022/02/14 03:22:41;;;;;;;4.43;0.90;;;10.40;99.90;;;;;;5023407;28;20068;-64
2022/02/14 03:25:07;;;;;;;2.05;0.55;;;10.40;99.90;;;;;;5020846;28;20038;-61
2022/02/14 03:27:33;;;;;;;6.78;0.70;;;10.40;99.90;;;;;;5022881;28;20092;-63
2022/02/14 03:29:59;;;;;;;3.33;0.73;;;10.40;99.90;;;;;;5020140;28;20087;-62
2022/02/14 03:32:24;;;;;;;1.80;0.60;;;10.40;99.90;;;;;;5021832;28;20127;-62
2022/02/14 03:34:50;;;;;;;1.92;0.90;;;10.40;99.90;;;;;;5022243;28;20041;-63
2022/02/14 03:37:16;;;;;;;2.10;0.55;;;10.40;99.90;;;;;;5020439;28;20129;-61
2022/02/14 03:39:42;;;;;;;3.38;1.15;;;10.40;99.90;;;;;;5023431;28;20029;-62
2022/02/14 03:42:08;;;;;;;1.80;0.73;;;10.40;99.90;;;;;;5023341;28;20037;-63
2022/02/14 03:44:33;;;;;;;4.68;0.88;;;10.40;99.90;;;;;;5020797;28;20034;-63
2022/02/14 03:46:59;;;;;;;7.68;1.00;;;10.40;99.90;;;;;;5021989;28;20041;-63
2022/02/14 03:49:25;;;;;;;5.22;1.30;;;10.30;99.90;;;;;;5020403;28;20041;-61
2022/02/14 03:51:50;;;;;;;3.60;1.08;;;10.40;99.90;;;;;;5020390;28;20034;-62
2022/02/14 03:54:16;;;;;;;10.52;0.93;;;10.40;99.90;;;;;;5023042;28;20097;-63
2022/02/14 03:56:42;;;;;;;3.55;0.45;;;10.40;99.90;;;;;;5018854;28;20045;-62
2022/02/14 03:59:07;;;;;;;1.02;0.55;;;10.40;99.90;;;;;;5022019;28;20044;-63
2022/02/14 04:01:33;;;;;;;5.15;0.77;;;10.50;99.90;;;;;;5018131;28;20037;-62
2022/02/14 04:03:59;;;;;;;1.73;0.68;;;10.50;99.90;;;;;;5020830;28;20036;-68
2022/02/14 04:06:24;;;;;;;2.95;0.98;;;10.50;99.90;;;;;;5020208;28;20464;-63
2022/02/14 04:08:50;;;;;;;4.25;1.13;;;10.50;99.90;;;;;;5021427;28;20030;-62
2022/02/14 04:11:16;;;;;;;4.65;1.15;;;10.60;99.90;;;;;;5019405;28;20125;-63
2022/02/14 04:13:41;;;;;;;2.40;0.57;;;10.60;99.90;;;;;;5019225;28;20092;-62
2022/02/14 04:16:07;;;;;;;3.40;0.40;;;10.60;99.90;;;;;;5022345;28;20057;-62
2022/02/14 04:18:33;;;;;;;3.03;0.63;;;10.70;99.90;;;;;;5019297;28;20109;-64
2022/02/14 04:20:59;;;;;;;3.85;0.80;;;10.70;99.90;;;;;;5021910;28;20034;-63
2022/02/14 04:23:24;;;;;;;2.83;0.70;;;10.70;99.90;;;;;;5019589;28;20125;-62
2022/02/14 04:25:50;;;;;;;5.55;1.08;;;10.70;99.90;;;;;;5020446;28;20026;-61
2022/02/14 04:28:16;;;;;;;7.85;1.77;;;10.70;99.90;;;;;;5022184;28;20562;-64
2022/02/14 04:30:41;;;;;;;3.22;1.02;;;10.70;99.90;;;;;;5017179;28;20037;-61
2022/02/14 04:33:07;;;;;;;4.90;0.55;;;10.80;99.90;;;;;;5022625;28;20034;-61
2022/02/14 04:35:33;;;;;;;2.30;0.80;;;10.80;99.90;;;;;;5018713;28;20046;-63
2022/02/14 04:37:59;;;;;;;6.13;1.00;;;10.70;99.90;;;;;;5019680;28;20048;-61
2022/02/14 04:40:30;;;;;;;2.97;0.82;;;10.70;99.90;;;;;;5019420;28;20506;-61
2022/02/14 04:42:56;;;;;;;;;;;10.80;99.90;;;;;;5023571;28;20394;-63
2022/02/14 04:45:22;;;;;;;4.38;0.82;;;10.80;99.90;;;;;;5020635;28;20281;-61
2022/02/14 04:47:48;;;;;;;3.92;0.95;;;10.90;99.90;;;;;;5018973;28;20397;-62
2022/02/14 04:50:14;;;;;;;2.70;0.90;;;10.90;99.90;;;;;;5021490;28;20120;-62
2022/02/14 04:52:39;;;;;;;2.88;0.55;;;10.80;99.90;;;;;;5018646;28;20033;-62
2022/02/14 04:55:05;;;;;;;2.90;0.50;;;10.90;99.90;;;;;;5022109;28;20492;-62
2022/02/14 04:57:31;;;;;;;4.38;0.80;;;10.90;99.90;;;;;;5017514;28;20029;-62
2022/02/14 04:59:57;;;;;;;2.25;0.73;;;10.90;99.90;;;;;;5019480;28;20084;-64
2022/02/14 05:02:22;;;;;;;5.97;0.93;;;11.00;99.90;;;;;;5020168;28;20542;-63
2022/02/14 05:04:48;;;;;;;6.95;0.75;;;11.00;99.90;;;;;;5019464;28;20038;-62
2022/02/14 05:07:13;;;;;;;6.13;1.40;;;10.90;99.90;;;;;;5020697;28;20045;-62
2022/02/14 05:09:39;;;;;;;3.13;0.60;;;10.90;99.90;;;;;;5016679;28;20060;-63
2022/02/14 05:12:05;;;;;;;4.90;0.90;;;11.00;99.90;;;;;;5021445;28;20073;-62
2022/02/14 05:14:30;;;;;;;4.32;0.90;;;11.00;99.90;;;;;;5018076;28;20497;-63
2022/02/14 05:16:56;;;;;;;5.95;0.90;;;11.10;99.90;;;;;;5020288;28;20033;-63
2022/02/14 05:19:22;;;;;;;6.78;1.40;;;11.00;99.90;;;;;;5019672;28;20033;-62
2022/02/14 05:21:47;;;;;;;2.20;0.68;;;11.10;99.90;;;;;;5019097;28;20037;-62
2022/02/14 05:24:13;;;;;;;3.28;0.68;;;11.10;99.90;;;;;;5020588;28;20136;-62
2022/02/14 05:26:38;;;;;;;2.45;0.80;;;11.10;99.90;;;;;;5019303;28;20041;-62
2022/02/14 05:29:04;;;;;;;1.50;0.57;;;11.20;99.90;;;;;;5019712;28;20037;-62
2022/02/14 05:31:30;;;;;;;2.85;0.52;;;11.20;99.90;;;;;;5020361;28;20030;-62
2022/02/14 05:33:55;;;;;;;1.38;0.45;;;11.30;99.90;;;;;;5020037;28;20037;-60
2022/02/14 05:36:22;;;;;;;6.90;1.42;;;11.20;99.90;;;;;;5029622;23;20121;-67
2022/02/14 05:38:47;;;;;;;3.28;0.77;;;11.30;99.90;;;;;;5000136;28;20040;-66
2022/02/14 05:41:14;;;;;;;5.38;0.85;;;11.30;99.90;;;;;;5002491;28;20038;-68
2022/02/14 05:43:41;;;;;;;3.65;0.50;;;11.30;99.90;;;;;;5001842;28;20109;-68
2022/02/14 05:46:13;;;;;;;1.80;0.57;;;11.40;99.90;;;;;;4999454;28;20041;-69
2022/02/14 05:48:44;;;;;;;1.52;0.50;;;11.40;99.90;;;;;;4998413;28;20145;-67
2022/02/14 05:51:10;;;;;;;7.40;1.95;;;11.30;99.90;;;;;;4996986;28;20410;-66
2022/02/14 05:53:37;;;;;;;2.28;0.90;;;11.30;99.90;;;;;;4999397;28;20512;-67
2022/02/14 05:56:03;;;;;;;5.68;1.08;;;11.30;99.90;;;;;;4997615;28;20048;-66
2022/02/14 05:58:29;;;;;;;1.75;0.88;;;11.30;99.90;;;;;;5000262;28;20521;-66
2022/02/14 06:00:55;;;;;;;2.97;0.82;;;11.30;99.90;;;;;;4998869;28;20037;-67
2022/02/14 06:03:20;;;;;;;2.72;0.80;;;11.30;99.90;;;;;;5000323;28;20030;-68
2022/02/14 06:05:46;;;;;;;1.85;0.55;;;11.30;99.90;;;;;;4994319;28;20030;-68
2022/02/14 06:08:11;;;;;;;4.63;0.70;;;11.30;99.90;;;;;;5004196;28;20403;-69
2022/02/14 06:10:37;;;;;;;2.92;0.40;;;11.30;99.90;;;;;;4997447;28;20423;-68
2022/02/14 06:13:02;;;;;;;5.97;0.77;;;11.20;99.90;;;;;;4999864;28;20547;-68
2022/02/14 06:15:28;;;;;;;3.28;0.80;;;11.30;99.90;;;;;;4998650;28;20037;-67
2022/02/14 06:17:54;;;;;;;1.40;0.68;;;11.20;99.90;;;;;;4999449;28;20049;-67
2022/02/14 06:20:19;;;;;;;9.98;0.80;;;11.20;99.90;;;;;;4996611;28;20045;-66
2022/02/14 06:22:45;;;;;;;6.18;0.75;;;11.20;99.90;;;;;;4993489;28;20046;-67
2022/02/14 06:25:11;;;;;;;4.72;0.57;;;11.20;99.90;;;;;;5000043;28;20042;-65
2022/02/14 06:27:36;;;;;;;1.50;0.70;;;11.20;99.90;;;;;;4998201;28;20048;-66
2022/02/14 06:30:03;;;;;;;3.38;0.43;;;11.20;99.90;;;;;;4997124;28;20489;-66
2022/02/14 06:32:29;;;;;;;5.70;0.80;;;11.20;99.90;;;;;;4993562;28;20030;-68
2022/02/14 06:34:55;;;;;;;19.60;0.80;;;11.30;99.90;;;;;;5000521;28;20480;-66
2022/02/14 06:37:20;;;;;;;4.13;1.15;;;11.30;99.90;;;;;;4994415;28;20057;-68
2022/02/14 06:39:46;;;;;;;1.55;0.85;;;11.30;99.90;;;;;;4996025;28;20029;-65
2022/02/14 06:42:11;;;;;;;2.90;0.73;;;11.30;99.90;;;;;;5000784;28;20038;-69
2022/02/14 06:44:38;;;;;;;2.13;0.50;;;11.30;99.90;;;;;;5001398;28;20030;-68
2022/02/14 06:47:04;;;;;;;5.32;1.10;;;11.30;99.90;;;;;;5003795;28;20045;-68
2022/02/14 06:49:30;;;;;;;8.15;1.25;;;11.20;99.90;;;;;;4997899;28;20129;-65
2022/02/14 06:51:55;;;;;;;1.35;0.45;;;11.10;99.90;;;;;;4996017;28;20095;-69
2022/02/14 06:54:21;;;;;;;2.53;0.68;;;10.90;99.90;;;;;;4997035;28;20116;-67
2022/02/14 06:56:47;;;;;;;2.00;0.50;;;10.70;99.90;;;;;;4996354;28;20038;-68
2022/02/14 06:59:13;;;;;;;1.02;0.17;;;10.50;99.90;;;;;;5005619;28;20528;-67
2022/02/14 07:01:38;;;;;;;4.40;0.22;;;10.20;99.90;;;;;;4997631;28;20025;-66
2022/02/14 07:04:04;;;;;;;1.67;0.30;;;10.00;99.90;;;;;;4998859;28;20064;-67
2022/02/14 07:06:31;;;;;;;0.90;0.47;;;9.80;99.90;;;;;;5008395;28;20050;-63
2022/02/14 07:08:57;;;;;;;0.40;0.20;;;9.60;99.90;;;;;;4998343;28;20058;-67
2022/02/14 07:11:23;;;;;;;2.05;0.85;;;9.50;99.90;;;;;;4998960;28;20037;-67
2022/02/14 07:13:48;;;;;;;2.00;0.57;;;9.40;99.90;;;;;;4999676;28;20588;-70
2022/02/14 07:16:14;;;;;;;1.40;0.52;;;9.20;99.90;;;;;;5000213;28;20104;-66
2022/02/14 07:18:40;;;;;;;1.58;0.60;;;9.20;99.90;;;;;;4998356;28;20029;-68
2022/02/14 07:21:06;;;;;;;2.40;0.45;;;9.10;99.90;;;;;;4999979;28;20051;-66
2022/02/14 07:23:31;;;;;;;2.10;0.30;;;9.00;99.90;;;;;;5003419;28;20586;-68
2022/02/14 07:25:57;;;;;;;2.33;0.70;;;9.00;99.90;;;;;;4997116;28;20406;-66
2022/02/14 07:28:23;;;;;;;2.55;0.50;;;9.00;99.90;;;;;;5001320;28;20040;-67
2022/02/14 07:30:49;;;;;;;1.90;0.70;;;9.00;99.90;;;;;;5003214;28;20030;-66
2022/02/14 07:33:14;;;;;;;0.60;0.30;;;8.90;99.90;;;;;;5001065;28;20038;-66
2022/02/14 07:35:40;;;;;;;2.00;0.45;;;9.00;99.90;;;;;;4999489;28;20042;-64
2022/02/14 07:38:06;;;;;;;3.08;0.52;;;8.90;99.90;;;;;;5000645;28;20042;-68
2022/02/14 07:40:31;;;;;;;1.60;0.25;;;8.90;99.90;;;;;;5001226;28;20038;-67
2022/02/14 07:42:57;;;;;;;2.75;0.70;;;8.80;99.90;;;;;;4999737;28;20042;-70
2022/02/14 07:45:23;;;;;;;1.60;0.50;;;8.80;99.90;;;;;;5001916;28;20185;-66
2022/02/14 07:47:49;;;;;;;1.02;0.40;;;8.80;99.90;;;;;;4997294;28;20541;-67
2022/02/14 07:50:15;;;;;;;2.50;0.70;;;8.80;99.90;;;;;;5001686;28;20045;-70
2022/02/14 07:52:41;;;;;;;0.80;0.50;;;8.80;99.90;;;;;;4995737;28;20034;-66
2022/02/14 07:55:08;;;;;;;3.65;1.15;;;8.80;99.90;;;;;;5002365;28;20503;-67
2022/02/14 07:57:33;;;;;;;3.45;0.57;;;8.90;99.90;;;;;;4996178;28;20033;-67
2022/02/14 08:00:01;;;;;;;3.35;0.80;;;8.90;99.90;;;;;;5001609;28;20044;-65
2022/02/14 08:02:27;;;;;;;1.05;0.40;;;8.90;99.90;;;;;;5000267;28;20043;-68
2022/02/14 08:04:52;;;;;;;1.40;0.40;;;8.90;99.90;;;;;;5001365;28;20039;-68
2022/02/14 08:07:18;;;;;;;2.00;0.50;;;8.90;99.90;;;;;;5004625;28;20052;-67
2022/02/14 08:09:44;;;;;;;4.20;0.52;;;8.90;99.90;;;;;;4997824;28;20046;-70
2022/02/14 08:12:10;;;;;;;2.15;0.80;;;8.90;99.90;;;;;;4998524;28;20109;-67
2022/02/14 08:14:37;;;;;;;0.90;0.60;;;8.90;99.90;;;;;;5005810;28;20038;-67
2022/02/14 08:17:04;;;;;;;2.33;0.80;;;9.00;99.90;;;;;;4999107;28;20030;-69
2022/02/14 08:19:30;;;;;;;2.72;0.65;;;9.00;99.90;;;;;;4999018;28;20030;-66
2022/02/14 08:21:56;;;;;;;2.63;0.90;;;9.10;99.90;;;;;;4997534;28;20784;-68
2022/02/14 08:24:22;;;;;;;2.80;0.65;;;9.20;99.90;;;;;;5005918;28;20546;-66
2022/02/14 08:26:48;;;;;;;1.48;0.52;;;9.30;99.90;;;;;;4998521;28;20132;-67
2022/02/14 08:29:14;;;;;;;1.15;0.50;;;9.30;99.90;;;;;;5005118;28;20129;-67
2022/02/14 08:31:39;;;;;;;5.00;0.60;;;9.40;99.90;;;;;;4999819;28;20038;-66
2022/02/14 08:34:06;;;;;;;2.38;0.52;;;9.50;99.90;;;;;;4996742;28;20091;-67
2022/02/14 08:36:32;;;;;;;1.65;0.35;;;9.50;99.90;;;;;;4997956;28;20038;-67
2022/02/14 08:38:57;;;;;;;4.00;0.65;;;9.50;99.90;;;;;;4996030;28;20394;-67
2022/02/14 08:41:23;;;;;;;7.22;0.80;;;9.60;99.90;;;;;;5000464;28;20137;-70
2022/02/14 08:43:50;;;;;;;2.05;0.50;;;9.60;99.90;;;;;;5000410;28;20104;-68
2022/02/14 08:46:19;;;;;;;1.15;0.30;;;9.60;99.90;;;;;;4998713;28;20512;-68
2022/02/14 08:48:49;;;;;;;2.20;0.93;;;9.60;99.90;;;;;;4996610;28;20038;-68
2022/02/14 08:51:17;;;;;;;3.43;0.40;;;9.70;99.90;;;;;;4999079;28;20112;-69
2022/02/14 08:53:43;;;;;;;3.05;0.80;;;9.70;99.90;;;;;;5000415;28;20765;-66
2022/02/14 08:56:09;;;;;;;3.53;0.30;;;9.80;99.90;;;;;;5001790;28;20129;-67
2022/02/14 08:58:36;;;;;;;1.48;0.50;;;9.90;99.90;;;;;;4997029;28;20064;-67
2022/02/14 09:01:03;;;;;;;2.50;0.50;;;9.90;99.90;;;;;;5005887;28;20065;-67
2022/02/14 09:03:29;;;;;;;5.93;0.75;;;10.00;99.90;;;;;;5002721;28;20405;-68
2022/02/14 09:05:55;;;;;;;6.60;1.75;;;10.00;99.90;;;;;;4999971;28;20084;-68
2022/02/14 09:08:22;;;;;;;3.03;0.85;;;9.90;99.90;;;;;;4998563;28;20133;-66
2022/02/14 09:10:48;;;;;;;2.45;0.85;;;10.00;99.90;;;;;;4999040;28;20034;-67
2022/02/14 09:13:13;;;;;;;1.85;0.70;;;10.00;99.90;;;;;;4995551;28;20090;-64
2022/02/14 09:15:39;;;;;;;2.35;0.85;;;10.00;99.90;;;;;;4999707;28;20044;-69
2022/02/14 09:18:05;;;;;;;3.63;0.98;;;10.10;99.90;;;;;;4999197;28;20038;-67
2022/02/14 09:20:31;;;;;;;2.38;1.08;;;10.00;99.90;;;;;;5000881;28;20614;-65
2022/02/14 09:22:56;;;;;;;2.40;1.13;;;10.10;99.90;;;;;;4996035;28;20057;-67
2022/02/14 09:25:23;;;;;;;1.63;1.05;;;10.10;99.90;;;;;;4997974;28;20050;-67
2022/02/14 09:27:49;;;;;;;5.47;0.88;;;10.20;99.90;;;;;;4998085;28;20041;-67
2022/02/14 09:30:15;;;;;;;3.75;1.05;;;10.20;99.90;;;;;;5004072;28;20543;-67
2022/02/14 09:32:40;;;;;;;3.85;1.20;;;10.20;99.90;;;;;;4998431;28;20201;-68
2022/02/14 09:35:07;;;;;;;3.90;1.10;;;10.30;99.90;;;;;;5003766;28;20124;-66
2022/02/14 09:37:33;;;;;;;1.85;0.90;;;10.30;99.90;;;;;;4995490;28;20046;-68
2022/02/14 09:39:59;;;;;;;3.10;0.90;;;10.20;99.90;;;;;;5002114;28;20606;-67
2022/02/14 09:42:25;;;;;;;4.22;0.80;;;10.10;99.90;;;;;;4999640;28;20045;-68
2022/02/14 09:44:51;;;;;;;1.50;0.70;;;10.20;99.90;;;;;;5003508;28;20026;-66
2022/02/14 09:47:17;;;;;;;4.10;0.90;;;10.20;99.90;;;;;;4998647;28;20080;-66
2022/02/14 09:49:43;;;;;;;1.38;0.70;;;10.20;99.90;;;;;;4996285;28;20517;-68
2022/02/14 09:52:10;;;;;;;7.95;1.42;;;10.20;99.90;;;;;;4998404;28;20042;-68
2022/02/14 09:54:37;;;;;;;5.63;0.90;;;10.20;99.90;;;;;;5004309;28;20052;-66
2022/02/14 09:57:03;;;;;;;3.17;0.95;;;10.30;99.90;;;;;;4997720;28;20453;-67
2022/02/14 09:59:29;;;;;;;4.72;1.52;;;10.40;99.90;;;;;;5005533;28;20036;-68
2022/02/14 10:01:54;;;;;;;1.65;0.63;;;10.50;99.90;;;;;;5000443;28;20659;-66
2022/02/14 10:04:22;;;;;;;4.88;1.63;;;10.50;99.90;;;;;;5005451;28;20045;-69
2022/02/14 10:06:49;;;;;;;2.95;0.55;;;10.50;99.90;;;;;;4995028;28;20098;-67
2022/02/14 10:09:24;;;;;;;3.78;0.70;;;10.40;99.90;;;;;;5006589;28;20041;-70
2022/02/14 10:12:11;;;;;;;4.30;0.75;;;10.30;99.90;;;;;;4999365;28;20044;-69
2022/02/14 10:14:38;;;;;;;4.55;1.00;;;10.40;99.90;;;;;;4995381;28;20049;-67
2022/02/14 10:17:14;;;;;;;3.47;0.50;;;10.40;99.90;;;;;;5000689;28;20033;-67
2022/02/14 10:19:53;;;;;;;2.00;0.50;;;10.40;99.90;;;;;;4999025;28;20042;-68
2022/02/14 10:22:19;;;;;;;7.15;0.50;;;10.40;99.90;;;;;;5000025;28;20111;-69
2022/02/14 10:24:45;;;;;;;4.47;0.85;;;10.40;99.90;;;;;;4994647;28;20073;-70
2022/02/14 10:27:13;;;;;;;5.47;1.45;;;10.40;99.90;;;;;;5000080;28;20699;-69
2022/02/14 10:29:41;;;;;;;2.40;0.52;;;10.50;99.90;;;;;;5001268;28;20125;-67
2022/02/14 10:32:17;;;;;;;2.00;0.43;;;10.50;99.90;;;;;;5008173;28;20038;-68
2022/02/14 10:34:47;;;;;;;3.13;0.50;;;10.50;99.90;;;;;;5008331;28;20046;-68
2022/02/14 10:37:15;;;;;;;5.07;1.08;;;10.60;99.90;;;;;;5005339;28;20516;-69
2022/02/14 10:39:42;;;;;;;4.38;0.47;;;10.60;99.90;;;;;;5002442;28;20045;-68
2022/02/14 10:42:19;;;;;;;8.75;1.30;;;10.50;99.90;;;;;;5000960;28;20042;-66
2022/02/14 10:47:44;;;;;;;4.20;0.75;;;10.30;99.90;;;;;;5008276;28;20102;-67
2022/02/14 10:50:25;;;;;;;3.13;0.57;;;10.30;99.90;;;;;;5004646;28;20037;-67
2022/02/14 10:52:55;;;;;;;2.85;0.80;;;10.30;99.90;;;;;;4996522;28;20511;-66
2022/02/14 10:55:25;;;;;;;2.22;0.57;;;10.50;99.90;;;;;;5002827;28;20125;-66
2022/02/14 10:57:53;;;;;;;4.68;0.80;;;10.50;99.90;;;;;;5009681;28;20041;-67
2022/02/14 11:00:33;;;;;;;8.20;0.63;;;10.70;99.90;;;;;;5005064;28;20038;-68
2022/02/14 11:03:06;;;;;;;2.67;0.45;;;10.70;99.90;;;;;;5007730;28;20027;-67
2022/02/14 11:05:32;;;;;;;1.80;0.57;;;10.70;99.90;;;;;;5002328;28;20034;-66
2022/02/14 11:07:59;;;;;;;1.55;0.40;;;10.70;99.90;;;;;;5002931;28;20121;-67
2022/02/14 11:10:26;;;;;;;1.65;0.40;;;10.70;99.90;;;;;;4998480;28;20057;-68
2022/02/14 11:12:55;;;;;;;2.72;0.45;;;10.80;99.90;;;;;;5001744;28;20057;-68
2022/02/14 11:15:32;;;;;;;0.85;0.17;;;10.80;99.90;;;;;;4998539;28;20046;-69
2022/02/14 11:18:08;;;;;;;7.03;0.30;;;11.00;99.90;;;;;;5002853;28;20088;-67
2022/02/14 11:20:33;;;;;;;1.67;0.30;;;11.10;99.90;;;;;;4997919;28;20042;-68
2022/02/14 11:23:01;;;;;;;6.18;0.98;;;11.20;99.90;;;;;;5005553;28;20406;-69
2022/02/14 11:25:45;;;;;;;1.88;0.30;;;11.20;99.90;;;;;;4999571;28;20044;-68
2022/02/14 11:28:28;;;;;;;3.40;0.77;;;11.10;99.90;;;;;;5009295;23;20133;-70
2022/02/14 11:31:08;;;;;;;6.50;1.30;;;11.00;99.90;;;;;;4986532;28;20027;-70
2022/02/14 11:33:35;;;;;;;5.93;0.47;;;10.80;99.90;;;;;;4985028;28;20069;-69
2022/02/14 11:36:06;;;;;;;2.70;0.60;;;10.60;99.90;;;;;;4989533;28;20041;-70
2022/02/14 11:38:55;;;;;;;6.05;0.60;;;10.50;99.90;;;;;;4971856;28;20045;-69
2022/02/14 11:41:30;;;;;;;2.42;0.38;;;10.40;99.90;;;;;;4970326;28;20129;-70
2022/02/14 11:46:44;;;;;;;3.55;0.45;;;10.20;99.90;;;;;;4973313;28;20043;-70
2022/02/14 11:49:10;;;;;;;;;;;10.10;99.90;;;;;;4966831;28;20118;-70
2022/02/14 11:51:44;;;;;;;7.55;0.60;;;10.20;99.90;;;;;;4969502;28;20013;-71
2022/02/14 11:54:31;;;;;;;5.75;1.38;;;10.30;99.90;;;;;;4970998;28;20415;-69
2022/02/14 11:57:29;;;;;;;4.97;0.20;;;10.60;99.90;;;;;;4971300;28;20038;-70
2022/02/14 12:00:29;;;;;;;8.13;0.50;;;10.90;99.90;;;;;;4967929;28;20027;-69
2022/02/14 12:03:10;;;;;;;4.60;1.35;;;11.10;99.90;;;;;;4971686;28;20474;-67
2022/02/14 12:05:48;;;;;;;0.75;0.30;;;11.20;99.90;;;;;;4967828;28;20035;-69
2022/02/14 12:08:15;;;;;;;5.63;0.50;;;11.30;99.90;;;;;;4968633;28;20042;-69
2022/02/14 12:10:57;;;;;;;2.40;0.40;;;11.30;99.90;;;;;;4970294;28;20030;-70
2022/02/14 12:13:27;;;;;;;4.00;1.02;;;11.30;99.90;;;;;;4970738;28;20058;-69
2022/02/14 12:21:18;;;;;;;3.97;0.55;;;11.50;99.90;;;;;;4970363;28;20057;-69
2022/02/14 12:23:55;;;;;;;3.47;1.15;;;11.50;99.90;;;;;;4970645;28;20034;-70
2022/02/14 12:26:25;;;;;;;6.18;0.45;;;11.60;99.90;;;;;;4970319;28;20038;-70
2022/02/14 12:29:32;;;;;;;2.78;0.55;;;11.70;99.90;;;;;;4970503;28;20070;-70
2022/02/14 12:31:48;;;;;;;2.75;0.50;;;11.80;99.90;;;;;;4969752;28;20486;-70
2022/02/14 12:34:25;;;;;;;4.53;0.28;;;11.90;99.90;;;;;;4971308;28;20047;-71
2022/02/14 12:36:52;;;;;;;3.30;0.70;;;12.00;99.90;;;;;;4971846;28;20038;-69
2022/02/14 12:39:36;;;;;;;6.32;0.47;;;12.10;99.90;;;;;;4969521;28;20026;-70
2022/02/14 12:42:10;;;;;;;2.00;0.30;;;12.00;99.90;;;;;;4969294;28;20038;-69
2022/02/14 12:44:35;;;;;;;1.30;0.20;;;11.90;99.90;;;;;;4971629;28;20038;-70
2022/02/14 12:47:02;;;;;;;1.98;0.22;;;11.80;99.90;;;;;;4970361;28;20042;-69
2022/02/14 12:49:28;;;;;;;1.63;0.22;;;11.70;99.90;;;;;;4971059;28;20039;-69
2022/02/14 12:52:06;;;;;;;2.67;0.20;;;11.60;99.90;;;;;;4969871;28;20033;-67
2022/02/14 12:54:32;;;;;;;3.20;1.13;;;11.50;99.90;;;;;;4970610;28;20146;-71
2022/02/14 12:56:58;;;;;;;2.78;0.22;;;11.40;99.90;;;;;;4969611;28;20194;-70
2022/02/14 12:59:23;;;;;;;1.30;0.10;;;11.40;99.90;;;;;;4971479;28;20027;-70
2022/02/14 13:01:49;;;;;;;6.25;0.20;;;11.40;99.90;;;;;;4968991;28;20035;-70
2022/02/14 13:04:15;;;;;;;3.33;0.98;;;11.40;99.90;;;;;;4970978;28;20067;-70